x

Caribbean Valley - 76 Nm Ssw Of Plymouth, Montserrat (42060) Wave Buoy

10:50am - Tue 30th Jun 2015 All times are AST. -4 hours from GMT.

  • Sig Wave height 6.6ft
  • Swell Direction
  • Peak Period 7s
  • Average Period 6s
  • Wind
    22mph, 25mph gusts
  • Sea Temp 82°f
  • Air Temp 82°f
  • Sea Pressure 1018.6mb
  • Caribbean Valley - 76 Nm Ssw Of Plymouth, Montserrat
  • Caribbean Valley - 76 Nm Ssw Of Plymouth, Montserrat

More Historic Weather Station data

Upgrade to MSW Pro to gain access to the past 30 days of data for over 8000 Wavebouys and Weather Stations around the globe.

Join Pro

Comparision Forecast

View Surf forecast
   
Tue 06/30 10:50am 6.5ft 7s 6s 22 25 mph 1018.6mb 82f 82f
9:50am 6.5ft 7s 6s 20 22 mph 1018.4mb 82f 82f
8:50am 7ft 6s 6s 18 22 mph 1018.1mb 82f 82f
7:50am 6.5ft 7s 6s 20 25 mph 1017.9mb 82f 82f
6:50am 6ft 7s 6s 22 25 mph 1017.4mb 82f 82f
5:50am 6ft 8s 6s 20 25 mph 1016.8mb 82f 81f
4:50am 6.5ft 7s 6s 16 20 mph 1016.8mb 82f 81f
3:50am 6ft 6s 6s 16 20 mph 1016.4mb 82f 80f
2:50am 6ft 7s 6s 16 18 mph 1016.6mb 82f 80f
1:50am 7ft 6s 6s 20 22 mph 1016.8mb 82f 78f
12:50am 6ft 6s 6s 22 27 mph 1016.9mb 82f 82f
Mon 06/29 11:50pm 7ft 7s 6s 25 31 mph 1017.8mb 82f 79f
10:50pm 6.5ft 6s 6s 18 20 mph 1018.4mb 82f 79f
9:50pm 7ft 6s 6s 22 27 mph 1018.1mb 82f 82f
8:50pm 6ft 7s 5s 25 27 mph 1017.5mb 82f 82f
7:50pm 6.5ft 7s 6s 22 27 mph 1017.2mb 82f 82f
6:50pm 6.5ft 6s 5s 22 27 mph 1016.7mb 82f 82f
5:50pm 6.5ft 7s 6s 22 29 mph 1016.3mb 82f 82f
4:50pm 6ft 6s 5s 22 27 mph 1015.9mb 82f 82f
3:50pm 6.5ft 6s 5s 22 27 mph 1016.2mb 82f 82f
2:50pm 6ft 7s 5s 22 27 mph 1016.7mb 82f 82f
1:50pm 6ft 6s 6s 22 27 mph 1017.2mb 82f 82f
12:50pm 6ft 6s 5s 20 25 mph 1018mb 82f 82f
11:50am 6ft 6s 5s 22 27 mph 1018.5mb 82f 82f
10:50am 6ft 7s 5s 22 27 mph 1018.7mb 82f 82f
9:50am 6ft 6s 5s 22 27 mph 1018.8mb 82f 82f
8:50am 6ft 6s 5s 22 27 mph 1018.7mb 82f 82f
7:50am 6.5ft 6s 5s 22 27 mph 1018.6mb 82f 82f
6:50am 6.5ft 7s 5s 22 29 mph 1018.3mb 82f 82f
5:50am 6ft 7s 5s 22 27 mph 1018.1mb 82f 82f
4:50am 6ft 6s 5s 18 22 mph 1018.3mb 82f 81f
3:50am 6ft 7s 6s 22 27 mph 1017.8mb 82f 82f
2:50am 7ft 7s 6s 20 25 mph 1017.8mb 82f 82f
1:50am 7ft 7s 6s 22 27 mph 1018mb 82f 82f
12:50am 6.5ft 7s 6s 20 25 mph 1018.8mb 82f 82f
Sun 06/28 11:50pm 6.5ft 6s 6s 20 25 mph 1019.3mb 82f 82f
10:50pm 6.5ft 7s 6s 22 27 mph 1019.4mb 82f 82f
9:50pm 6ft 7s 6s 22 27 mph 1019mb 82f 82f
8:50pm 6.5ft 7s 6s 22 27 mph 1018.7mb 82f 82f
7:50pm 6.5ft 6s 6s 22 27 mph 1018.4mb 82f 82f
6:50pm 7ft 6s 6s 20 25 mph 1017.9mb 82f 82f
5:50pm 6.5ft 6s 6s 20 25 mph 1017.5mb 82f 82f
3:50pm 6.5ft 6s 6s 18 22 mph 1017.2mb 82f 83f
2:50pm 6.5ft 7s 6s 20 25 mph 1017.6mb 82f 82f
1:50pm 6.5ft 7s 6s 18 22 mph 1018.4mb 82f 82f
12:50pm 6ft 7s 6s 18 25 mph 1018.7mb 82f 82f
11:50am 6ft 7s 6s 18 22 mph 1019.2mb 82f 82f
10:50am 6ft 6s 5s 20 22 mph 1019.3mb 82f 82f
9:50am 6ft 7s 5s 20 25 mph 1019.3mb 82f 82f
8:50am 6ft 6s 5s 20 25 mph 1019.2mb 82f 82f
7:50am 6ft 6s 5s 22 27 mph 1019mb 82f 82f
6:50am 6ft 6s 5s 20 25 mph 1018.7mb 82f 82f
5:50am 5ft 7s 5s 18 22 mph 1018.1mb 82f 82f
4:50am 5ft 6s 5s 20 22 mph 1017.6mb 82f 82f
3:50am 5ft 6s 5s 20 25 mph 1017.4mb 82f 82f
2:50am 5ft 6s 5s 18 20 mph 1017.7mb 82f 82f
1:50am 5.5ft 8s 6s 16 18 mph 1018.1mb 82f 81f
12:50am 5ft 6s 5s 18 20 mph 1018.8mb 82f 82f
Sat 06/27 11:50pm 5ft 9s 5s 16 18 mph 1019.3mb 82f 82f
10:50pm 5.5ft 6s 6s 16 20 mph 1019.9mb 82f 82f
9:50pm 5.5ft 8s 6s 13 16 mph 1019.8mb 82f 82f
8:50pm 6ft 7s 6s 13 16 mph 1019.5mb 82f 82f
7:50pm 5.5ft 9s 6s 18 20 mph 1018.6mb 82f 82f
6:50pm 6ft 8s 6s 16 18 mph 1018mb 82f 82f
5:50pm 6ft 6s 6s 13 16 mph 1017.6mb 82f 83f
4:50pm 6ft 7s 6s 18 22 mph 1017mb 82f 83f
3:50pm 6.5ft 6s 6s 16 18 mph 1017.2mb 82f 83f
2:50pm 7ft 7s 6s 16 20 mph 1017.7mb 82f 82f
1:50pm 6ft 7s 6s 13 18 mph 1018.3mb 82f 82f
12:50pm 6ft 6s 6s 16 18 mph 1018.7mb 82f 82f
11:50am 6ft 6s 6s 18 20 mph 1018.9mb 82f 82f
10:50am 6ft 7s 6s 20 22 mph 1019.3mb 82f 82f
9:50am 7ft 6s 6s 20 25 mph 1019.4mb 82f 82f
8:50am 7ft 7s 6s 20 22 mph 1019.1mb 82f 82f
7:50am 7ft 7s 6s 22 27 mph 1018.8mb 82f 82f
6:50am 7ft 6s 6s 22 27 mph 1018.7mb 82f 82f
5:50am 7ft 7s 6s 20 25 mph 1018.5mb 82f 81f
4:50am 6.5ft 8s 6s 22 27 mph 1018.2mb 82f 82f
3:50am 6ft 7s 5s 22 27 mph 1018.1mb 82f 82f
2:50am 6.5ft 6s 5s 22 27 mph 1017.9mb 82f 82f
1:50am 6ft 6s 5s 25 29 mph 1018mb 82f 82f
12:50am 5.5ft 6s 5s 22 29 mph 1018.7mb 82f 82f
Fri 06/26 11:50pm 5.5ft 7s 5s 16 20 mph 1019.8mb 82f 81f
10:50pm 6ft 6s 5s 22 27 mph 1019.8mb 82f 81f
9:50pm 6ft 6s 5s 20 25 mph 1019.7mb 82f 82f
8:50pm 6ft 6s 5s 20 25 mph 1019.4mb 82f 81f
7:50pm 5ft 5s 5s 22 25 mph 1018.8mb 82f 81f
6:50pm 5ft 6s 5s 20 25 mph 1018.2mb 82f 82f
5:50pm 5ft 6s 5s 18 22 mph 1018mb 82f 82f
4:50pm 5ft 6s 5s 18 22 mph 1017.5mb 82f 82f
3:50pm 5ft 6s 5s 20 22 mph 1017.3mb 82f 82f